createdAt,value
2022-11-14T00:01:26.871Z,4.28
2022-11-14T00:04:14.667Z,4.38
2022-11-14T00:07:01.780Z,4.65
2022-11-14T00:09:48.845Z,3.88
2022-11-14T00:12:36.128Z,3.70
2022-11-14T00:15:23.512Z,4.28
2022-11-14T00:18:13.736Z,4.20
2022-11-14T00:21:00.383Z,4.53
2022-11-14T00:23:47.829Z,4.70
2022-11-14T00:26:35.266Z,3.65
2022-11-14T00:29:23.057Z,3.83
2022-11-14T00:32:10.085Z,3.92
2022-11-14T00:34:59.092Z,4.43
2022-11-14T00:37:45.640Z,3.67
2022-11-14T00:40:33.444Z,3.75
2022-11-14T00:43:20.640Z,4.43
2022-11-14T00:46:07.770Z,4.35
2022-11-14T00:48:54.879Z,3.97
2022-11-14T00:51:43.432Z,4.20
2022-11-14T00:54:30.957Z,4.30
2022-11-14T00:57:18.307Z,4.50
2022-11-14T01:00:06.698Z,4.72
2022-11-14T01:02:56.938Z,5.65
2022-11-14T01:05:49.830Z,4.65
2022-11-14T01:08:38.828Z,4.55
2022-11-14T01:11:26.233Z,4.88
2022-11-14T01:14:13.415Z,4.50
2022-11-14T01:17:00.442Z,5.00
2022-11-14T01:19:47.664Z,4.28
2022-11-14T01:22:34.682Z,4.85
2022-11-14T01:25:22.930Z,4.75
2022-11-14T01:28:11.038Z,3.97
2022-11-14T01:30:58.291Z,3.47
2022-11-14T01:33:45.656Z,4.38
2022-11-14T01:36:32.407Z,3.42
2022-11-14T01:39:19.490Z,3.63
2022-11-14T01:42:07.950Z,3.88
2022-11-14T01:44:55.186Z,3.42
2022-11-14T01:47:43.374Z,4.25
2022-11-14T01:50:30.522Z,3.42
2022-11-14T01:53:17.682Z,3.97
2022-11-14T01:56:08.784Z,3.75
2022-11-14T01:59:03.401Z,3.85
2022-11-14T02:01:53.387Z,3.75
2022-11-14T02:04:44.422Z,3.63
2022-11-14T02:07:35.752Z,3.88
2022-11-14T02:10:23.454Z,3.90
2022-11-14T02:13:10.677Z,3.63
2022-11-14T02:15:59.243Z,4.30
2022-11-14T02:18:45.924Z,3.40
2022-11-14T02:21:34.550Z,4.50
2022-11-14T02:24:21.492Z,3.58
2022-11-14T02:27:09.917Z,3.75
2022-11-14T02:30:05.447Z,3.60
2022-11-14T02:35:59.898Z,3.83
2022-11-14T02:38:48.259Z,3.88
2022-11-14T02:41:35.511Z,3.55
2022-11-14T02:44:22.347Z,3.45
2022-11-14T02:47:09.265Z,3.63
2022-11-14T02:49:56.476Z,3.83
2022-11-14T02:52:43.531Z,3.78
2022-11-14T02:55:31.803Z,3.65
2022-11-14T02:58:19.026Z,3.63
2022-11-14T03:01:20.276Z,4.32
2022-11-14T03:04:08.230Z,4.05
2022-11-14T03:06:55.364Z,4.22
2022-11-14T03:09:42.263Z,4.10
2022-11-14T03:12:30.700Z,3.92
2022-11-14T03:15:17.581Z,3.83
2022-11-14T03:18:07.381Z,4.05
2022-11-14T03:20:54.464Z,3.47
2022-11-14T03:23:41.610Z,3.90
2022-11-14T03:26:28.692Z,4.20
2022-11-14T03:29:16.861Z,3.83
2022-11-14T03:32:03.698Z,3.75
2022-11-14T03:34:50.515Z,4.05
2022-11-14T03:37:37.613Z,3.53
2022-11-14T03:40:24.689Z,3.42
2022-11-14T03:43:12.227Z,3.22
2022-11-14T03:46:01.308Z,3.63
2022-11-14T03:48:48.943Z,3.92
2022-11-14T03:51:36.834Z,3.33
2022-11-14T03:54:23.857Z,3.35
2022-11-14T03:57:11.066Z,3.75
2022-11-14T03:59:58.137Z,3.15
2022-11-14T04:02:46.796Z,3.53
2022-11-14T04:05:34.681Z,3.65
2022-11-14T04:08:21.953Z,3.70
2022-11-14T04:11:11.431Z,4.20
2022-11-14T04:13:59.112Z,3.67
2022-11-14T04:16:45.811Z,3.85
2022-11-14T04:19:34.063Z,3.75
2022-11-14T04:22:21.510Z,3.75
2022-11-14T04:25:10.072Z,3.83
2022-11-14T04:27:57.011Z,4.55
2022-11-14T04:30:45.324Z,4.28
2022-11-14T04:33:32.598Z,4.45
2022-11-14T04:36:20.807Z,4.13
2022-11-14T04:39:07.883Z,4.63
2022-11-14T04:41:54.651Z,4.07
2022-11-14T04:44:41.726Z,4.05
2022-11-14T04:47:28.959Z,3.65
2022-11-14T04:50:16.624Z,3.42
2022-11-14T04:53:05.372Z,3.72
2022-11-14T04:55:53.306Z,3.92
2022-11-14T04:58:40.196Z,4.22
2022-11-14T05:01:27.147Z,4.30
2022-11-14T05:04:14.245Z,4.32
2022-11-14T05:07:01.361Z,4.45
2022-11-14T05:09:49.976Z,5.05
2022-11-14T05:12:37.168Z,6.22
2022-11-14T05:15:24.279Z,4.10
2022-11-14T05:18:11.213Z,4.95
2022-11-14T05:21:00.563Z,4.32
2022-11-14T05:23:48.284Z,4.00
2022-11-14T05:26:37.591Z,4.03
2022-11-14T05:29:24.928Z,5.50
2022-11-14T05:32:16.128Z,5.68
2022-11-14T05:35:03.236Z,4.40
2022-11-14T05:37:50.348Z,5.03
2022-11-14T05:40:38.968Z,4.20
2022-11-14T05:43:30.266Z,4.72
2022-11-14T05:46:17.711Z,4.55
2022-11-14T05:49:05.455Z,3.70
2022-11-14T05:51:52.865Z,4.78
2022-11-14T05:54:40.379Z,5.00
2022-11-14T05:57:27.358Z,4.70
2022-11-14T06:00:18.281Z,6.18
2022-11-14T06:03:05.515Z,6.15
2022-11-14T06:05:52.719Z,4.88
2022-11-14T06:08:40.270Z,4.32
2022-11-14T06:11:28.648Z,4.00
2022-11-14T06:14:16.038Z,3.55
2022-11-14T06:17:05.375Z,3.45
2022-11-14T06:19:52.361Z,3.00
2022-11-14T06:22:40.061Z,3.38
2022-11-14T06:25:27.038Z,2.60
2022-11-14T06:28:14.246Z,3.40
2022-11-14T06:31:02.355Z,3.15
2022-11-14T06:33:51.255Z,2.85
2022-11-14T06:36:39.315Z,3.00
2022-11-14T06:39:27.174Z,3.25
2022-11-14T06:42:16.821Z,3.30
2022-11-14T06:45:03.935Z,3.40
2022-11-14T06:47:51.183Z,3.30
2022-11-14T06:50:39.722Z,3.45
2022-11-14T06:53:28.127Z,4.03
2022-11-14T06:56:16.392Z,4.68
2022-11-14T06:59:04.447Z,5.97
2022-11-14T07:01:51.530Z,5.65
2022-11-14T07:04:38.559Z,6.30
2022-11-14T07:07:28.810Z,6.88
2022-11-14T07:10:16.046Z,6.28
2022-11-14T07:13:03.134Z,7.20
2022-11-14T07:15:53.193Z,7.50
2022-11-14T07:18:40.271Z,7.70
2022-11-14T07:21:28.795Z,7.55
2022-11-14T07:24:18.135Z,8.07
2022-11-14T07:27:11.089Z,8.90
2022-11-14T07:29:58.115Z,8.85
2022-11-14T07:32:45.219Z,7.55
2022-11-14T07:35:32.202Z,8.90
2022-11-14T07:38:19.288Z,9.48
2022-11-14T07:41:10.191Z,9.23
2022-11-14T07:43:57.351Z,9.20
2022-11-14T07:46:45.099Z,8.80
2022-11-14T07:49:32.017Z,8.85
2022-11-14T07:52:19.047Z,8.68
2022-11-14T07:55:06.745Z,9.18
2022-11-14T07:57:56.321Z,8.48
2022-11-14T08:00:43.548Z,8.88
2022-11-14T08:03:31.324Z,7.07
2022-11-14T08:06:18.251Z,7.85
2022-11-14T08:10:07.647Z,7.40
2022-11-14T08:13:29.782Z,5.15
2022-11-14T08:16:13.315Z,4.90
2022-11-14T08:19:01.543Z,5.05
2022-11-14T08:21:48.781Z,4.47
2022-11-14T08:24:35.981Z,4.40
2022-11-14T08:27:23.545Z,4.80
2022-11-14T08:30:14.004Z,4.45
2022-11-14T08:33:04.054Z,4.75
2022-11-14T08:35:51.316Z,4.47
2022-11-14T08:38:38.853Z,4.35
2022-11-14T08:41:26.280Z,4.57
2022-11-14T08:44:13.943Z,4.95
2022-11-14T08:47:03.967Z,4.72
2022-11-14T08:49:50.802Z,4.68
2022-11-14T08:52:38.105Z,4.57
2022-11-14T08:55:25.224Z,4.45
2022-11-14T08:58:12.633Z,5.07
2022-11-14T09:01:05.141Z,5.55
2022-11-14T09:03:59.403Z,5.15
2022-11-14T09:06:47.531Z,5.45
2022-11-14T09:09:34.623Z,5.28
2022-11-14T09:12:21.632Z,6.18
2022-11-14T09:15:10.878Z,5.63
2022-11-14T09:17:59.006Z,5.03
2022-11-14T09:20:47.664Z,4.78
2022-11-14T09:23:35.420Z,5.35
2022-11-14T09:26:22.705Z,5.63
2022-11-14T09:29:10.071Z,5.55
2022-11-14T09:31:57.464Z,6.10
2022-11-14T09:34:45.825Z,6.78
2022-11-14T09:37:35.032Z,7.60
2022-11-14T09:40:22.316Z,7.80
2022-11-14T09:43:35.000Z,6.95
2022-11-14T09:46:25.320Z,7.75
2022-11-14T09:49:21.849Z,7.25
2022-11-14T09:52:18.927Z,7.72
2022-11-14T09:55:14.936Z,7.65
2022-11-14T09:58:04.862Z,7.15
2022-11-14T10:01:01.908Z,7.57
2022-11-14T10:04:01.299Z,7.90
2022-11-14T10:07:00.935Z,8.50
2022-11-14T10:09:57.764Z,7.97
2022-11-14T10:12:57.853Z,8.40
2022-11-14T10:15:49.121Z,9.65
2022-11-14T10:18:47.862Z,9.43
2022-11-14T10:21:52.993Z,8.40
2022-11-14T10:24:57.697Z,9.70
2022-11-14T10:27:58.457Z,9.70
2022-11-14T10:30:57.077Z,9.13
2022-11-14T10:33:53.725Z,9.38
2022-11-14T10:36:50.380Z,10.30
2022-11-14T10:39:43.355Z,9.25
2022-11-14T10:42:36.921Z,9.15
2022-11-14T10:45:31.196Z,7.80
2022-11-14T10:48:26.025Z,6.78
2022-11-14T10:51:22.089Z,7.28
2022-11-14T10:54:17.628Z,7.20
2022-11-14T10:57:05.003Z,7.85
2022-11-14T10:59:55.946Z,7.97
2022-11-14T11:02:53.805Z,7.05
2022-11-14T11:05:49.830Z,7.25
2022-11-14T11:09:00.931Z,6.32
2022-11-14T11:11:55.951Z,6.60
2022-11-14T11:14:43.870Z,6.78
2022-11-14T11:17:37.063Z,7.32
2022-11-14T11:20:32.233Z,7.20
2022-11-14T11:23:23.968Z,7.45
2022-11-14T11:29:09.745Z,6.85
2022-11-14T11:31:59.149Z,6.38
2022-11-14T11:34:47.003Z,6.53
2022-11-14T11:37:41.261Z,7.38
2022-11-14T11:40:31.570Z,6.60
2022-11-14T11:43:42.104Z,7.65
2022-11-14T11:46:36.623Z,6.78
2022-11-14T11:49:36.620Z,7.82
2022-11-14T11:52:33.422Z,6.95
2022-11-14T11:55:27.644Z,6.78
2022-11-14T11:58:22.309Z,6.97
2022-11-14T12:01:12.141Z,6.55
2022-11-14T12:03:59.810Z,6.25
2022-11-14T12:06:52.242Z,7.10
2022-11-14T12:10:09.224Z,6.78
2022-11-14T12:13:13.896Z,6.55
2022-11-14T12:16:13.237Z,6.75
2022-11-14T12:19:25.922Z,8.23
2022-11-14T12:22:26.754Z,7.75
2022-11-14T12:25:49.097Z,6.53
2022-11-14T12:29:04.824Z,7.25
2022-11-14T12:32:04.122Z,8.35
2022-11-14T12:35:00.301Z,7.80
2022-11-14T12:37:56.427Z,6.53
2022-11-14T12:40:58.617Z,9.60
2022-11-14T12:43:48.885Z,8.15
2022-11-14T12:47:09.665Z,6.45
2022-11-14T12:50:02.974Z,8.43
2022-11-14T12:52:54.084Z,7.57
2022-11-14T12:56:15.081Z,11.45
2022-11-14T12:59:27.151Z,10.32
2022-11-14T13:02:47.610Z,9.60
2022-11-14T13:05:53.611Z,8.60
2022-11-14T13:09:00.954Z,7.47
2022-11-14T13:12:06.769Z,6.70
2022-11-14T13:15:15.631Z,6.40
2022-11-14T13:18:33.478Z,6.88
2022-11-14T13:21:45.666Z,6.30
2022-11-14T13:25:06.145Z,6.37
2022-11-14T13:28:18.946Z,7.07
2022-11-14T13:31:19.567Z,5.75
2022-11-14T13:34:34.172Z,5.88
2022-11-14T13:37:36.730Z,6.70
2022-11-14T13:40:30.068Z,6.20
2022-11-14T13:43:25.577Z,5.10
2022-11-14T13:46:28.209Z,5.57
2022-11-14T13:49:34.261Z,5.47
2022-11-14T13:52:21.852Z,5.45
2022-11-14T13:55:09.626Z,5.72
2022-11-14T13:58:10.185Z,5.85
2022-11-14T14:01:15.999Z,5.85
2022-11-14T14:04:18.893Z,5.32
2022-11-14T14:10:07.646Z,6.05
2022-11-14T14:13:08.832Z,6.57
2022-11-14T14:16:05.703Z,9.35
2022-11-14T14:19:02.628Z,13.77
2022-11-14T14:22:00.194Z,8.23
2022-11-14T14:24:56.176Z,5.95
2022-11-14T14:27:57.112Z,6.63
2022-11-14T14:31:02.685Z,7.35
2022-11-14T14:33:52.498Z,10.05
2022-11-14T14:36:52.861Z,7.68
2022-11-14T14:39:40.644Z,9.75
2022-11-14T14:42:35.125Z,7.43
2022-11-14T14:45:25.588Z,7.00
2022-11-14T14:48:15.890Z,6.80
2022-11-14T14:51:05.393Z,6.47
2022-11-14T14:53:54.941Z,6.32
2022-11-14T14:56:54.512Z,7.30
2022-11-14T14:59:42.496Z,6.93
2022-11-14T15:02:31.401Z,6.53
2022-11-14T15:05:26.115Z,7.80
2022-11-14T15:08:15.391Z,6.20
2022-11-14T15:11:04.926Z,7.15
2022-11-14T15:13:55.760Z,6.70
2022-11-14T15:16:44.193Z,5.65
2022-11-14T15:19:39.301Z,5.40
2022-11-14T15:22:29.409Z,5.50
2022-11-14T15:25:21.503Z,7.28
2022-11-14T15:28:18.100Z,8.75
2022-11-14T15:31:06.716Z,11.27
2022-11-14T15:34:06.228Z,6.75
2022-11-14T15:37:24.318Z,5.82
2022-11-14T15:40:22.594Z,5.60
2022-11-14T15:43:38.521Z,6.20
2022-11-14T15:46:35.440Z,5.85
2022-11-14T15:49:25.148Z,6.15
2022-11-14T15:52:22.213Z,10.00
2022-11-14T15:55:15.838Z,8.23
2022-11-14T16:01:17.371Z,8.05
2022-11-14T16:04:05.092Z,6.78
2022-11-14T16:06:52.057Z,11.55
2022-11-14T16:09:39.929Z,7.97
2022-11-14T16:12:27.205Z,6.05
2022-11-14T16:15:14.634Z,5.65
2022-11-14T16:18:05.571Z,4.82
2022-11-14T16:20:52.766Z,5.13
2022-11-14T16:23:40.245Z,5.53
2022-11-14T16:26:27.378Z,5.00
2022-11-14T16:29:14.914Z,5.90
2022-11-14T16:32:03.262Z,5.15
2022-11-14T16:34:51.600Z,5.35
2022-11-14T16:37:39.313Z,26.92
2022-11-14T16:40:28.196Z,32.85
2022-11-14T16:43:16.306Z,26.50
2022-11-14T16:46:05.813Z,23.02
2022-11-14T16:48:53.332Z,15.73
2022-11-14T16:51:50.491Z,10.63
2022-11-14T16:54:38.019Z,11.75
2022-11-14T16:57:25.893Z,15.57
2022-11-14T17:00:14.852Z,15.38
2022-11-14T17:03:02.141Z,13.10
2022-11-14T17:05:50.912Z,9.77
2022-11-14T17:08:40.072Z,8.30
2022-11-14T17:11:28.120Z,9.68
2022-11-14T17:14:15.264Z,6.72
2022-11-14T17:17:02.500Z,11.73
2022-11-14T17:19:49.713Z,10.88
2022-11-14T17:22:37.451Z,10.50
2022-11-14T17:25:26.253Z,12.55
2022-11-14T17:28:15.018Z,12.05
2022-11-14T17:31:07.037Z,15.15
2022-11-14T17:33:54.738Z,15.88
2022-11-14T17:36:41.576Z,23.48
2022-11-14T17:39:28.503Z,15.13
2022-11-14T17:42:17.240Z,16.80
2022-11-14T17:45:05.116Z,17.83
2022-11-14T17:47:52.719Z,15.27
2022-11-14T17:50:40.687Z,12.73
2022-11-14T17:53:28.063Z,10.15
2022-11-14T17:56:16.891Z,11.77
2022-11-14T17:59:05.817Z,11.15
2022-11-14T18:01:54.702Z,8.85
2022-11-14T18:04:42.393Z,12.57
2022-11-14T18:07:33.398Z,10.18
2022-11-14T18:10:21.385Z,10.90
2022-11-14T18:13:08.419Z,13.48
2022-11-14T18:16:02.386Z,14.02
2022-11-14T18:18:49.296Z,10.23
2022-11-14T18:21:38.810Z,8.30
2022-11-14T18:24:26.025Z,6.78
2022-11-14T18:27:13.399Z,9.77
2022-11-14T18:30:08.390Z,8.88
2022-11-14T18:33:08.870Z,12.95
2022-11-14T18:35:57.811Z,12.02
2022-11-14T18:38:45.474Z,11.77
2022-11-14T18:41:32.668Z,10.93
2022-11-14T18:44:21.311Z,10.00
2022-11-14T18:47:08.579Z,10.80
2022-11-14T18:49:59.561Z,13.88
2022-11-14T18:52:47.031Z,12.65
2022-11-14T18:55:34.107Z,13.07
2022-11-14T18:58:21.142Z,11.98
2022-11-14T19:01:12.810Z,13.63
2022-11-14T19:04:02.107Z,17.23
2022-11-14T19:06:50.836Z,13.25
2022-11-14T19:09:37.989Z,11.68
2022-11-14T19:12:25.780Z,12.77
2022-11-14T19:15:13.987Z,10.45
2022-11-14T19:18:00.908Z,10.60
2022-11-14T19:20:57.531Z,10.98
2022-11-14T19:23:46.197Z,11.55
2022-11-14T19:26:33.450Z,11.90
2022-11-14T19:29:21.270Z,14.38
2022-11-14T19:32:09.845Z,12.95
2022-11-14T19:34:56.730Z,15.30
2022-11-14T19:37:43.958Z,13.65
2022-11-14T19:40:32.388Z,12.30
2022-11-14T19:43:20.224Z,14.68
2022-11-14T19:46:07.909Z,17.48
2022-11-14T19:48:57.505Z,24.30
2022-11-14T19:51:44.881Z,26.08
2022-11-14T19:54:32.011Z,18.88
2022-11-14T19:57:20.378Z,15.55
2022-11-14T20:00:08.968Z,13.20
2022-11-14T20:02:56.640Z,13.30
2022-11-14T20:05:44.107Z,18.98
2022-11-14T20:08:31.758Z,17.55
2022-11-14T20:11:19.803Z,14.07
2022-11-14T20:14:08.361Z,13.70
2022-11-14T20:16:55.576Z,12.85
2022-11-14T20:19:42.782Z,10.18
2022-11-14T20:22:29.482Z,11.30
2022-11-14T20:25:17.185Z,13.60
2022-11-14T20:28:08.089Z,13.60
2022-11-14T20:30:56.922Z,13.07
2022-11-14T20:33:45.997Z,11.93
2022-11-14T20:36:56.585Z,12.45
2022-11-14T20:39:40.476Z,11.77
2022-11-14T20:42:27.562Z,10.73
2022-11-14T20:45:14.813Z,11.35
2022-11-14T20:48:03.834Z,14.00
2022-11-14T20:50:50.928Z,16.85
2022-11-14T20:53:37.980Z,12.80
2022-11-14T20:56:25.120Z,10.95
2022-11-14T20:59:12.363Z,10.50
2022-11-14T21:01:59.897Z,11.05
2022-11-14T21:04:48.871Z,10.40
2022-11-14T21:07:35.791Z,10.60
2022-11-14T21:10:40.036Z,14.20
2022-11-14T21:13:44.791Z,12.02
2022-11-14T21:16:34.448Z,12.52
2022-11-14T21:19:22.886Z,12.00
2022-11-14T21:22:11.102Z,10.07
2022-11-14T21:24:58.339Z,11.13
2022-11-14T21:27:46.022Z,10.57
2022-11-14T21:30:34.705Z,12.85
2022-11-14T21:33:21.722Z,10.70
2022-11-14T21:36:30.140Z,11.73
2022-11-14T21:39:18.439Z,11.90
2022-11-14T21:42:06.340Z,11.73
2022-11-14T21:44:53.475Z,11.80
2022-11-14T21:47:40.466Z,14.40
2022-11-14T21:50:27.538Z,13.23
2022-11-14T21:53:16.281Z,16.00
2022-11-14T21:56:12.969Z,13.68
2022-11-14T21:59:14.879Z,12.80
2022-11-14T22:05:07.288Z,11.65
2022-11-14T22:07:55.100Z,12.05
2022-11-14T22:10:42.392Z,12.77
2022-11-14T22:13:32.825Z,12.27
2022-11-14T22:16:21.058Z,12.32
2022-11-14T22:19:10.045Z,11.73
2022-11-14T22:21:57.755Z,11.35
2022-11-14T22:24:45.161Z,11.18
2022-11-14T22:27:32.547Z,11.43
2022-11-14T22:30:21.370Z,12.30
2022-11-14T22:33:08.787Z,11.65
2022-11-14T22:35:56.352Z,12.30
2022-11-14T22:38:44.625Z,12.80
2022-11-14T22:41:33.977Z,13.02
2022-11-14T22:44:20.949Z,14.70
2022-11-14T22:47:09.919Z,14.65
2022-11-14T22:49:56.973Z,14.82
2022-11-14T22:52:43.986Z,14.45
2022-11-14T22:55:31.051Z,14.50
2022-11-14T22:58:18.118Z,13.63
2022-11-14T23:01:12.779Z,13.38
2022-11-14T23:04:03.507Z,13.57
2022-11-14T23:06:53.173Z,13.77
2022-11-14T23:09:40.110Z,14.15
2022-11-14T23:12:27.667Z,12.82
2022-11-14T23:15:15.068Z,13.10
2022-11-14T23:18:02.771Z,12.95
2022-11-14T23:20:51.818Z,13.43
2022-11-14T23:23:38.853Z,12.60
2022-11-14T23:26:26.839Z,13.77
2022-11-14T23:29:15.233Z,13.75
2022-11-14T23:32:02.591Z,12.60
2022-11-14T23:34:49.858Z,13.18
2022-11-14T23:37:38.288Z,13.25
2022-11-14T23:40:25.656Z,13.27
2022-11-14T23:43:12.733Z,13.77
2022-11-14T23:46:00.477Z,13.68
2022-11-14T23:48:47.849Z,12.63
2022-11-14T23:51:35.003Z,12.57
2022-11-14T23:54:23.549Z,13.30
2022-11-14T23:57:10.997Z,14.10
2022-11-14T23:59:58.136Z,13.38
